createdAt,value
2019-03-25T00:02:51.874Z,6.40
2019-03-25T00:08:15.236Z,6.30
2019-03-25T00:13:20.123Z,7.40
2019-03-25T00:18:24.943Z,6.40
2019-03-25T00:23:29.308Z,6.20
2019-03-25T00:28:33.453Z,5.90
2019-03-25T00:33:38.011Z,5.90
2019-03-25T00:38:43.087Z,6.00
2019-03-25T00:43:48.951Z,6.00
2019-03-25T00:48:54.021Z,6.10
2019-03-25T00:53:58.321Z,6.00
2019-03-25T00:59:03.696Z,6.10
2019-03-25T01:04:08.659Z,6.10
2019-03-25T01:09:13.699Z,6.20
2019-03-25T01:14:20.675Z,6.30
2019-03-25T01:19:24.870Z,6.30
2019-03-25T01:24:29.044Z,6.40
2019-03-25T01:29:33.290Z,6.30
2019-03-25T01:34:37.469Z,6.40
2019-03-25T01:39:41.700Z,6.40
2019-03-25T01:44:46.782Z,6.40
2019-03-25T01:49:50.962Z,6.40
2019-03-25T01:54:55.421Z,6.50
2019-03-25T02:00:06.671Z,6.50
2019-03-25T02:05:11.378Z,6.60
2019-03-25T02:10:15.919Z,6.50
2019-03-25T02:15:20.104Z,6.50
2019-03-25T02:20:26.618Z,6.50
2019-03-25T02:25:30.638Z,6.40
2019-03-25T02:30:34.825Z,6.30
2019-03-25T02:35:39.445Z,6.00
2019-03-25T02:40:44.544Z,6.00
2019-03-25T02:45:48.872Z,5.90
2019-03-25T02:50:53.317Z,5.70
2019-03-25T02:55:58.310Z,5.60
2019-03-25T03:01:04.341Z,5.80
2019-03-25T03:06:09.392Z,5.70
2019-03-25T03:11:14.972Z,5.70
2019-03-25T03:16:19.191Z,5.40
2019-03-25T03:21:23.362Z,5.20
2019-03-25T03:26:28.335Z,5.20
2019-03-25T03:31:35.177Z,5.00
2019-03-25T03:36:42.365Z,4.90
2019-03-25T03:41:46.444Z,4.80
2019-03-25T03:46:50.751Z,4.70
2019-03-25T03:51:56.417Z,4.70
2019-03-25T03:57:01.720Z,4.80
2019-03-25T04:02:07.019Z,4.80
2019-03-25T04:07:11.234Z,4.70
2019-03-25T04:12:15.398Z,4.70
2019-03-25T04:17:19.542Z,4.60
2019-03-25T04:22:24.088Z,4.50
2019-03-25T04:27:28.479Z,4.30
2019-03-25T04:32:32.790Z,4.30
2019-03-25T04:37:37.285Z,4.20
2019-03-25T04:42:42.306Z,4.30
2019-03-25T04:47:46.513Z,4.30
2019-03-25T04:52:50.659Z,6.10
2019-03-25T04:57:55.097Z,4.50
2019-03-25T05:02:59.569Z,4.40
2019-03-25T05:08:04.141Z,4.40
2019-03-25T05:13:10.410Z,4.40
2019-03-25T05:18:14.943Z,4.50
2019-03-25T05:23:19.953Z,4.60
2019-03-25T05:28:24.513Z,4.80
2019-03-25T05:33:30.555Z,5.00
2019-03-25T05:38:34.846Z,5.10
2019-03-25T05:43:39.386Z,5.20
2019-03-25T05:48:43.754Z,5.40
2019-03-25T05:53:48.051Z,2.20
2019-03-25T05:58:53.370Z,5.60
2019-03-25T06:03:57.552Z,5.90
2019-03-25T06:09:02.073Z,6.00
2019-03-25T06:14:06.361Z,6.30
2019-03-25T06:19:11.926Z,6.70
2019-03-25T06:24:16.904Z,7.00
2019-03-25T06:29:21.067Z,7.30
2019-03-25T06:34:26.203Z,7.40
2019-03-25T06:39:30.359Z,7.60
2019-03-25T06:44:34.499Z,7.80
2019-03-25T06:49:38.667Z,8.10
2019-03-25T06:54:42.832Z,8.20
2019-03-25T06:59:47.004Z,8.20
2019-03-25T07:04:51.227Z,8.30
2019-03-25T07:09:55.697Z,8.20
2019-03-25T07:14:59.954Z,8.30
2019-03-25T07:20:05.351Z,8.20
2019-03-25T07:25:09.618Z,8.10
2019-03-25T07:30:14.395Z,8.30
2019-03-25T07:35:18.862Z,8.30
2019-03-25T07:40:23.823Z,8.20
2019-03-25T07:45:28.033Z,8.30
2019-03-25T07:50:32.577Z,8.60
2019-03-25T07:55:37.992Z,8.70
2019-03-25T08:00:42.237Z,8.80
2019-03-25T08:05:46.400Z,8.70
2019-03-25T08:10:50.652Z,8.50
2019-03-25T08:15:54.870Z,8.50
2019-03-25T08:20:59.459Z,8.30
2019-03-25T08:26:03.597Z,8.50
2019-03-25T08:31:07.964Z,8.80
2019-03-25T08:36:13.351Z,9.20
2019-03-25T08:41:18.015Z,9.00
2019-03-25T08:46:22.451Z,8.80
2019-03-25T08:51:28.130Z,9.30
2019-03-25T08:56:32.293Z,9.40
2019-03-25T09:01:36.628Z,9.60
2019-03-25T09:06:41.575Z,9.50
2019-03-25T09:11:45.774Z,9.50
2019-03-25T09:16:50.228Z,9.50
2019-03-25T09:21:54.370Z,10.00
2019-03-25T09:26:58.647Z,10.80
2019-03-25T09:32:03.089Z,10.70
2019-03-25T09:37:07.605Z,10.20
2019-03-25T09:42:11.749Z,9.50
2019-03-25T09:47:15.913Z,9.50
2019-03-25T09:52:20.623Z,9.40
2019-03-25T09:57:24.868Z,9.50
2019-03-25T10:02:28.981Z,9.20
2019-03-25T10:07:33.081Z,9.00
2019-03-25T10:12:38.240Z,9.00
2019-03-25T10:17:42.472Z,9.00
2019-03-25T10:22:46.643Z,9.10
2019-03-25T10:27:51.152Z,9.50
2019-03-25T10:32:55.265Z,9.50
2019-03-25T10:38:00.278Z,9.80
2019-03-25T10:43:04.396Z,10.10
2019-03-25T10:48:09.576Z,10.70
2019-03-25T10:53:13.800Z,10.30
2019-03-25T10:58:18.885Z,10.20
2019-03-25T11:03:23.368Z,10.10
2019-03-25T11:08:30.848Z,9.60
2019-03-25T11:13:35.963Z,9.50
2019-03-25T11:23:45.518Z,10.00
2019-03-25T11:28:49.938Z,10.80
2019-03-25T11:33:54.255Z,10.80
2019-03-25T11:38:58.479Z,10.30
2019-03-25T11:44:02.823Z,10.10
2019-03-25T11:49:08.115Z,9.60
2019-03-25T11:54:14.376Z,9.30
2019-03-25T11:59:19.092Z,9.10
2019-03-25T12:04:23.675Z,9.30
2019-03-25T12:09:29.310Z,9.60
2019-03-25T12:19:37.517Z,10.40
2019-03-25T12:29:46.052Z,10.60
2019-03-25T12:34:50.682Z,10.70
2019-03-25T12:39:56.668Z,10.10
2019-03-25T12:45:01.945Z,8.80
2019-03-25T12:50:10.353Z,7.90
2019-03-25T12:55:14.515Z,7.70
2019-03-25T13:00:38.177Z,7.20
2019-03-25T13:05:44.053Z,6.80
2019-03-25T13:10:48.341Z,6.60
2019-03-25T13:15:54.312Z,6.00
2019-03-25T13:20:58.609Z,6.10
2019-03-25T13:26:03.628Z,7.50
2019-03-25T13:31:11.224Z,8.50
2019-03-25T13:36:15.670Z,9.20
2019-03-25T13:46:24.606Z,9.10
2019-03-25T13:51:29.546Z,9.20
2019-03-25T13:56:34.747Z,8.50
2019-03-25T14:01:39.799Z,8.50
2019-03-25T14:06:43.929Z,7.80
2019-03-25T14:11:48.454Z,7.00
2019-03-25T14:16:53.897Z,6.30
2019-03-25T14:21:58.166Z,6.10
2019-03-25T14:27:02.317Z,6.10
2019-03-25T14:32:06.925Z,6.50
2019-03-25T14:37:14.191Z,7.70
2019-03-25T14:42:18.573Z,7.80
2019-03-25T14:47:22.769Z,7.90
2019-03-25T14:52:27.242Z,7.70
2019-03-25T14:57:32.911Z,7.10
2019-03-25T15:02:37.794Z,6.70
2019-03-25T15:07:42.019Z,6.60
2019-03-25T15:12:46.175Z,6.60
2019-03-25T15:17:51.167Z,6.90
2019-03-25T15:22:57.150Z,7.80
2019-03-25T15:28:02.924Z,8.20
2019-03-25T15:33:07.190Z,8.80
2019-03-25T15:38:11.565Z,8.40
2019-03-25T15:43:15.709Z,8.50
2019-03-25T15:48:19.887Z,8.30
2019-03-25T15:53:25.041Z,7.60
2019-03-25T15:58:30.856Z,7.50
2019-03-25T16:03:35.306Z,6.90
2019-03-25T16:08:40.445Z,6.60
2019-03-25T16:18:48.776Z,6.50
2019-03-25T16:39:07.771Z,6.40
2019-03-25T16:49:19.253Z,6.40
2019-03-25T16:54:23.929Z,6.30
2019-03-25T17:04:32.341Z,6.20
2019-03-25T17:09:36.462Z,6.20
2019-03-25T17:14:41.406Z,6.10
2019-03-25T17:24:51.596Z,6.20
2019-03-25T17:29:56.260Z,6.10
2019-03-25T17:35:00.414Z,6.00
2019-03-25T17:40:05.808Z,6.00
2019-03-25T17:45:10.494Z,5.90
2019-03-25T17:55:20.379Z,5.80
2019-03-25T18:01:19.133Z,5.70
2019-03-25T18:06:23.321Z,5.70
2019-03-25T18:11:27.462Z,5.70
2019-03-25T18:16:31.574Z,5.60
2019-03-25T18:21:35.698Z,5.80
2019-03-25T18:26:40.625Z,5.40
2019-03-25T18:31:45.029Z,5.40
2019-03-25T18:36:50.100Z,5.30
2019-03-25T18:41:56.200Z,5.10
2019-03-25T18:47:02.743Z,5.20
2019-03-25T18:52:06.998Z,5.20
2019-03-25T18:57:11.186Z,5.30
2019-03-25T19:02:15.671Z,4.80
2019-03-25T19:07:20.474Z,4.80
2019-03-25T19:12:25.649Z,4.70
2019-03-25T19:17:30.130Z,4.50
2019-03-25T19:22:34.292Z,4.50
2019-03-25T19:27:39.531Z,4.40
2019-03-25T19:33:03.414Z,4.40
2019-03-25T19:38:07.523Z,4.30
2019-03-25T19:43:11.978Z,4.30
2019-03-25T19:48:18.742Z,4.30
2019-03-25T19:53:25.350Z,4.40
2019-03-25T19:58:29.612Z,4.40
2019-03-25T20:03:34.335Z,4.30
2019-03-25T20:08:40.455Z,4.20
2019-03-25T20:13:44.601Z,4.20
2019-03-25T20:18:48.747Z,4.20
2019-03-25T20:23:53.690Z,4.10
2019-03-25T20:28:58.185Z,4.00
2019-03-25T20:34:10.831Z,3.90
2019-03-25T20:39:09.780Z,3.90
2019-03-25T20:44:14.812Z,3.90
2019-03-25T20:49:19.338Z,3.90
2019-03-25T20:54:23.655Z,3.80
2019-03-25T20:59:30.398Z,3.90
2019-03-25T21:04:34.771Z,3.90
2019-03-25T21:09:39.361Z,3.90
2019-03-25T21:14:44.040Z,3.80
2019-03-25T21:19:49.416Z,3.80
2019-03-25T21:24:54.609Z,3.80
2019-03-25T21:29:59.608Z,3.70
2019-03-25T21:35:04.650Z,3.60
2019-03-25T21:40:09.023Z,0.60
2019-03-25T21:45:13.282Z,3.60
2019-03-25T21:50:18.130Z,3.60
2019-03-25T21:55:22.223Z,3.60
2019-03-25T22:00:26.439Z,3.60
2019-03-25T22:05:32.194Z,3.60
2019-03-25T22:10:37.125Z,3.60
2019-03-25T22:15:41.290Z,3.70
2019-03-25T22:20:46.227Z,3.70
2019-03-25T22:25:50.358Z,3.70
2019-03-25T22:30:55.564Z,3.60
2019-03-25T22:36:00.579Z,3.60
2019-03-25T22:41:04.693Z,3.60
2019-03-25T22:46:08.849Z,3.70
2019-03-25T22:51:12.968Z,3.70
2019-03-25T22:56:17.508Z,3.60
2019-03-25T23:01:21.632Z,3.60
2019-03-25T23:06:26.074Z,3.60
2019-03-25T23:11:30.326Z,3.70
2019-03-25T23:16:34.569Z,3.70
2019-03-25T23:21:39.495Z,3.70
2019-03-25T23:26:44.308Z,3.70
2019-03-25T23:31:49.331Z,3.60
2019-03-25T23:36:53.895Z,3.70
2019-03-25T23:41:58.377Z,3.70
2019-03-25T23:47:04.585Z,3.70
2019-03-25T23:52:09.092Z,3.70
2019-03-25T23:57:14.070Z,3.60
